Time,TemperatureF,DewpointF,PressureIn,WindDirection,WindDirectionDegrees,WindSpeedMPH,WindSpeedGustMPH,Humidity,HourlyPrecipIn,Conditions,Clouds,dailyrainin,SoftwareType,DateUTC
2013-03-14 00:05:00,47.5,-6.3,29.79,NW,315,0.0,0.0,1,0.00,,,0.00,WUHU216HW,2013-03-14 04:05:00,
2013-03-14 00:35:00,46.4,-7.2,29.79,NW,315,0.0,0.0,1,0.00,,,0.00,WUHU216HW,2013-03-14 04:35:00,
2013-03-14 01:05:00,46.1,-7.5,29.79,NW,315,0.0,0.0,1,0.00,,,0.00,WUHU216HW,2013-03-14 05:05:00,
2013-03-14 01:35:00,45.5,-7.9,29.79,NW,315,0.0,0.0,1,0.00,,,0.00,WUHU216HW,2013-03-14 05:35:00,
2013-03-14 02:05:00,45.0,-8.4,29.79,NW,315,0.0,0.0,1,0.00,,,0.00,WUHU216HW,2013-03-14 06:05:00,
2013-03-14 02:35:00,44.3,-8.9,29.78,NW,315,0.0,0.0,1,0.00,,,0.00,WUHU216HW,2013-03-14 06:35:00,
2013-03-14 03:05:00,43.7,-9.4,29.78,NNE,23,0.0,0.0,1,0.00,,,0.00,WUHU216HW,2013-03-14 07:05:00,
2013-03-14 04:00:00,47.0,-6.7,29.78,NW,315,0.2,0.2,7,0.00,,,0.00,WUHU216HW,2013-03-14 08:00:00,
2013-03-14 04:05:00,47.0,-6.7,29.78,NW,315,0.2,0.2,7,0.00,,,0.00,WUHU216HW,2013-03-14 08:05:00,
2013-03-14 04:35:00,47.0,8.0,29.79,NW,315,0.0,0.0,20,0.00,,,0.00,WUHU216HW,2013-03-14 08:35:00,
2013-03-14 05:04:00,46.8,14.3,29.79,NNW,338,0.0,0.0,27,0.00,,,0.00,WUHU216HW,2013-03-14 09:04:00,
2013-03-14 05:35:00,46.4,15.9,29.80,NW,315,0.0,0.0,29,0.00,,,0.00,WUHU216HW,2013-03-14 09:35:00,
2013-03-14 06:04:00,45.2,12.9,29.82,NW,315,0.0,0.0,27,0.00,,,0.00,WUHU216HW,2013-03-14 10:04:00,
2013-03-14 06:35:00,45.4,19.8,29.82,North,0,0.0,0.0,36,0.00,,,0.00,WUHU216HW,2013-03-14 10:35:00,
2013-03-14 07:05:00,45.5,23.1,29.84,North,0,0.0,0.0,41,0.00,,,0.00,WUHU216HW,2013-03-14 11:05:00,
2013-03-14 07:35:00,45.0,23.8,29.85,NNW,338,0.0,0.0,43,0.00,,,0.00,WUHU216HW,2013-03-14 11:35:00,
2013-03-14 08:05:00,44.3,20.8,29.86,NNW,338,0.0,0.0,39,0.00,,,0.00,WUHU216HW,2013-03-14 12:05:00,
2013-03-14 08:35:00,44.3,20.2,29.88,NW,315,0.2,0.2,38,0.00,,,0.00,WUHU216HW,2013-03-14 12:35:00,
2013-03-14 09:05:00,47.7,27.8,29.88,ENE,68,0.9,0.9,46,0.00,,,0.00,WUHU216HW,2013-03-14 13:05:00,
2013-03-14 09:35:00,50.0,31.7,29.89,NNE,23,0.9,0.9,49,0.00,,,0.00,WUHU216HW,2013-03-14 13:35:00,
2013-03-14 10:04:00,51.1,32.0,29.89,North,0,2.5,2.5,48,0.00,,,0.00,WUHU216HW,2013-03-14 14:04:00,
2013-03-14 10:34:00,53.5,33.0,29.89,NW,315,1.8,1.8,46,0.00,,,0.00,WUHU216HW,2013-03-14 14:34:00,
2013-03-14 11:04:00,56.5,35.3,29.89,NW,315,2.7,2.7,45,0.00,,,0.00,WUHU216HW,2013-03-14 15:04:00,
2013-03-14 11:34:00,59.0,35.3,29.88,NNW,338,1.8,1.8,41,0.00,,,0.00,WUHU216HW,2013-03-14 15:34:00,
2013-03-14 12:04:00,60.5,34.6,29.87,East,90,2.2,2.2,38,0.00,,,0.00,WUHU216HW,2013-03-14 16:04:00,
2013-03-14 12:35:00,63.0,35.5,29.87,NE,45,5.4,5.4,36,0.00,,,0.00,WUHU216HW,2013-03-14 16:35:00,
2013-03-14 13:04:00,64.1,32.8,29.86,NNW,338,2.5,2.5,31,0.00,,,0.00,WUHU216HW,2013-03-14 17:04:00,
2013-03-14 13:35:00,65.9,33.7,29.85,NNE,23,4.0,4.0,30,0.00,,,0.00,WUHU216HW,2013-03-14 17:35:00,
2013-03-14 14:04:00,67.0,32.6,29.84,NE,45,6.9,6.9,28,0.00,,,0.00,WUHU216HW,2013-03-14 18:04:00,
2013-03-14 14:35:00,68.4,30.8,29.83,ESE,113,4.5,4.5,25,0.00,,,0.00,WUHU216HW,2013-03-14 18:35:00,
2013-03-14 15:04:00,69.1,32.4,29.82,ENE,68,3.1,3.1,26,0.00,,,0.00,WUHU216HW,2013-03-14 19:04:00,
2013-03-14 15:35:00,68.9,31.3,29.81,NE,45,0.4,0.4,25,0.00,,,0.00,WUHU216HW,2013-03-14 19:35:00,
2013-03-14 16:04:00,69.8,32.0,29.81,North,0,0.7,0.7,25,0.00,,,0.00,WUHU216HW,2013-03-14 20:04:00,
2013-03-14 16:35:00,70.4,33.5,29.79,West,270,0.0,0.0,26,0.00,,,0.00,WUHU216HW,2013-03-14 20:35:00,
2013-03-14 17:04:00,70.6,41.4,29.79,NW,315,1.6,1.6,35,0.00,,,0.00,WUHU216HW,2013-03-14 21:04:00,
2013-03-14 17:35:00,69.8,42.2,29.80,ENE,68,4.3,4.3,37,0.00,,,0.00,WUHU216HW,2013-03-14 21:35:00,
2013-03-14 18:04:00,67.5,42.4,29.81,SE,135,0.4,0.4,40,0.00,,,0.00,WUHU216HW,2013-03-14 22:04:00,
2013-03-14 18:35:00,62.6,41.4,29.81,ENE,68,1.3,1.3,46,0.00,,,0.00,WUHU216HW,2013-03-14 22:35:00,
2013-03-14 19:04:00,59.6,41.0,29.82,ENE,68,5.4,5.4,50,0.00,,,0.00,WUHU216HW,2013-03-14 23:04:00,
2013-03-14 19:35:00,57.1,39.2,29.83,SE,135,1.1,1.1,51,0.00,,,0.00,WUHU216HW,2013-03-14 23:35:00,
2013-03-14 20:04:00,54.7,36.5,29.83,NE,45,0.7,0.7,50,0.00,,,0.00,WUHU216HW,2013-03-15 00:04:00,
2013-03-14 20:35:00,53.1,35.0,29.83,SE,135,0.0,0.0,50,0.00,,,0.00,WUHU216HW,2013-03-15 00:35:00,
2013-03-14 21:05:00,51.8,31.1,29.83,ENE,68,0.0,0.0,45,0.00,,,0.00,WUHU216HW,2013-03-15 01:05:00,
2013-03-14 21:35:00,50.4,29.2,29.84,NE,45,0.0,0.0,44,0.00,,,0.00,WUHU216HW,2013-03-15 01:35:00,
2013-03-14 22:05:00,48.6,21.3,29.86,NE,45,0.0,0.0,34,0.00,,,0.00,WUHU216HW,2013-03-15 02:05:00,
2013-03-14 22:35:00,46.8,8.7,29.87,NE,45,0.0,0.0,21,0.00,,,0.00,WUHU216HW,2013-03-15 02:35:00,
2013-03-14 23:05:00,45.0,-8.4,29.87,NE,45,0.0,0.0,7,0.00,,,0.00,WUHU216HW,2013-03-15 03:05:00,
2013-03-14 23:35:00,43.4,-9.6,29.87,NE,45,0.0,0.0,1,0.00,,,0.00,WUHU216HW,2013-03-15 03:35:00,